Flight Track Log - Related Links

Times and Time Zones

All times are in EDT time to prevent confusion due to time zone crossing. See the SWA691 flight status page for this flight to view local times or setup timezone preferences in your user account.


Time Position Orientation Groundspeed Altitude Reporting Facility
EDT Latitude Longitude Course Direction KTS MPH feet Rate Location/Type
Wed 09:54:30 AM 32.7500 -117.2167 289° West 153 176 2,100  Level Southern California TRACON
Wed 09:55:12 AM 32.7603 -117.2531 289° West 181 208 3,600 2,738 Climbing Los Angeles Center
Wed 09:56:13 AM 32.8014 -117.3236 305° West 243 280 6,800 3,463 Climbing Los Angeles Center
Wed 09:57:15 AM 32.8486 -117.4042 305° West 288 331 10,700 3,435 Climbing Los Angeles Center
Wed 09:58:17 AM 32.9067 -117.4933 308° West 331 381 13,900 3,171 Climbing Los Angeles Center
Wed 09:59:18 AM 32.9969 -117.5564 330° Northwest 367 422 17,200 3,220 Climbing Los Angeles Center
Wed 10:00:20 AM 33.0672 -117.6547 310° West 383 441 20,500 2,976 Climbing Los Angeles Center
Wed 10:01:21 AM 33.1353 -117.7628 307° West 396 456 23,300 2,844 Climbing Los Angeles Center
Wed 10:02:35 AM 33.2286 -117.8939 310° West 417 480 26,900 2,779 Climbing Los Angeles Center
Wed 10:03:37 AM 33.3231 -118.0289 310° West 433 498 29,600 2,274 Climbing Los Angeles Center
Wed 10:04:39 AM 33.4025 -118.1456 309° West 444 511 31,600 2,049 Climbing Los Angeles Center
Wed 10:05:40 AM 33.4853 -118.2653 310° West 458 527 33,800 2,000 Climbing Los Angeles Center
Wed 10:06:42 AM 33.5675 -118.3864 309° West 463 533 35,700 1,887 Climbing Los Angeles Center
Wed 10:07:44 AM 33.6525 -118.5094 310° West 467 537 37,700 1,839 Climbing Los Angeles Center
Wed 10:08:46 AM 33.7344 -118.6289 310° West 457 526 39,500 1,122 Climbing Los Angeles Center
Wed 10:09:47 AM 33.8147 -118.7447 310° West 450 518 40,000 244 Climbing Los Angeles Center
Wed 10:10:49 AM 33.8803 -118.8392 310° West 456 525 40,000  Level Los Angeles Center
Wed 10:11:51 AM 33.9769 -118.9819 309° West 458 527 40,000  Level Los Angeles Center
Wed 10:12:53 AM 34.0722 -119.1242 309° West 456 525 40,000  Level Los Angeles Center
Wed 10:13:55 AM 34.1531 -119.2428 309° West 456 525 40,000  Level Los Angeles Center
Wed 10:14:56 AM 34.2336 -119.3628 309° West 459 528 40,000  Level Los Angeles Center
Wed 10:15:58 AM 34.3139 -119.4814 309° West 457 526 40,000  Level Los Angeles Center
Wed 10:17:00 AM 34.3939 -119.6014 309° West 459 528 40,000  Level Los Angeles Center
Wed 10:18:02 AM 34.4739 -119.7231 309° West 461 531 40,000  Level Los Angeles Center
Wed 10:19:03 AM 34.5442 -119.8156 313° West 465 535 40,000  Level Los Angeles Center
Wed 10:20:06 AM 34.6697 -119.9458 320° Northwest 474 545 40,000  Level Los Angeles Center
Wed 10:21:08 AM 34.7869 -120.0731 318° Northwest 471 542 40,000  Level Los Angeles Center
Wed 10:22:09 AM 34.8661 -120.1606 318° Northwest 468 539 40,000  Level Los Angeles Center
Wed 10:23:11 AM 34.9836 -120.2889 318° Northwest 475 547 40,000  Level Los Angeles Center
Wed 10:24:13 AM 35.0792 -120.3964 317° Northwest 473 544 40,000  Level Los Angeles Center
Wed 10:25:15 AM 35.1750 -120.5025 318° Northwest 478 550 40,000 -48 Level Los Angeles Center
Wed 10:26:17 AM 35.2711 -120.6097 318° Northwest 475 547 39,900  Descending Los Angeles Center
Wed 10:27:19 AM 35.3681 -120.7153 318° Northwest 473 544 40,000 48 Climbing Los Angeles Center
Wed 10:28:21 AM 35.4961 -120.8264 325° Northwest 470 541 40,000  Level Los Angeles Center
Wed 10:29:22 AM 35.6014 -120.9208 324° Northwest 470 541 40,000  Level Los Angeles Center
Wed 10:30:28 AM 35.7169 -121.0242 324° Northwest 469 540 40,000  Level Oakland Center
Wed 10:31:29 AM 35.8219 -121.1192 324° Northwest 467 537 40,000 -878 Level Oakland Center
Wed 10:32:31 AM 35.9264 -121.2122 324° Northwest 463 533 38,200 -2,244 Descending Oakland Center
Wed 10:33:32 AM 36.0300 -121.3050 324° Northwest 462 532 35,400 -2,902 Descending Oakland Center
Wed 10:34:33 AM 36.1361 -121.4011 324° Northwest 471 542 32,300 -2,902 Descending Oakland Center
Wed 10:35:34 AM 36.2453 -121.5017 323° Northwest 487 560 29,500 -2,656 Descending Oakland Center
Wed 10:36:35 AM 36.3542 -121.6003 324° Northwest 485 558 26,900 -2,488 Descending Oakland Center
Wed 10:37:37 AM 36.4586 -121.6964 324° Northwest 468 539 24,400 -2,579 Descending Oakland Center
Wed 10:38:36 AM 36.5667 -121.8000 322° Northwest 448 516 21,700 -2,269 Descending Northern Cal TRACON
Wed 10:39:36 AM 36.6667 -121.9000 321° Northwest 428 493 19,900 -1,950 Descending Northern Cal TRACON
Wed 10:40:36 AM 36.7667 -121.9667 332° Northwest 409 471 17,800 -2,211 Descending Northern Cal TRACON
Wed 10:41:30 AM 36.8667 -122.0000 345° North 399 459 15,700 -2,316 Descending Northern Cal TRACON
Wed 10:42:30 AM 36.9667 -122.0167 352° North 386 444 13,400 -2,167 Descending Northern Cal TRACON
Wed 10:43:18 AM 37.0500 -122.0500 342° North 374 430 11,800 -1,889 Descending Northern Cal TRACON
Wed 10:44:18 AM 37.1500 -122.0667 352° North 341 392 10,000 -1,300 Descending Northern Cal TRACON
Wed 10:45:18 AM 37.2000 -122.1500 307° West 293 337 9,200 -800 Descending Northern Cal TRACON
Wed 10:46:18 AM 37.2667 -122.1500 360° North 238 274 8,400 -800 Descending Northern Cal TRACON
Wed 10:46:48 AM 37.2839 -122.1511 357° North 239 275 8,000 -923 Descending Oakland Center
Wed 10:47:49 AM 37.3456 -122.1381 10° North 225 259 7,000 -1,279 Descending Oakland Center
Wed 10:48:50 AM 37.4150 -122.1228 10° North 215 247 5,400 -1,415 Descending Oakland Center
Wed 10:49:52 AM 37.4753 -122.1097 10° North 218 251 4,100 -878 Descending Oakland Center
Wed 10:50:53 AM 37.5228 -122.1431 331° Northwest 205 236 3,600 -738 Descending Oakland Center
Wed 10:51:54 AM 37.5458 -122.2025 296° West 195 224 2,600 -927 Descending Oakland Center
Wed 10:52:56 AM 37.5689 -122.2597 297° West 190 219 1,700 -780 Descending Oakland Center
Wed 10:53:57 AM 37.5875 -122.3014 299° West 156 180 1,000 -689 Descending Oakland Center
Wed 10:54:58 AM 37.6053 -122.3439 298° West 142 163 300 -689 Descending Oakland Center
Wed 10:56:00 AM 37.6167 -122.3667 322° Northwest  Level FlightAware Approximate

Login

Don't have an account? Register now (free) for customized features, flight alerts, and more!